首页
METAR-TAF:

METAR-TAF

机场 :

North Myrtle Beach, 南卡罗来纳州, 美国

纬度: 33-48-42N, 经度: 078-43-26W, 海拔: 10米

当前天气观测

该预报发布于41分钟前的12:53 UTC
风速7节,风向北转东北
温度 8°C
湿度 81%
气压 1024 hPa
能見度: 16.1公里
天空无云

METAR: KCRE 171253Z 03007KT 10SM CLR 08/05 A3024 RMK AO1 SLP241 T00780050

时间: 08:34 (13:34 UTC)

预报

该预报发布于2小时和14分钟前的11:20 UTC
预报有效从17日的 12点(UTC)到 18日的 12点(UTC)
风速3节,风向西转西北
能見度: 10公里
天空无云
从 17日的 1500点(UTC)
风速6节,风向东北
能見度: 10公里
天空无云
从 17日的 1800点(UTC)
风速3节,风向多变
能見度: 10公里
天空无云

TAF: KCRE 171120Z 1712/1812 29003KT P6SM SKC FM171500 04006KT P6SM SKC FM171800 VRB03KT P6SM SKC

超过4000个机场的气象观测和天气预报(METAR&TAF报告)。

可查询的气象台以黄色和红色小点在地图上表示。

将鼠标移到小点上方,可查看气象台名称。

然后点击查看天气观测和预报。

如需切换地图:点击带黑十字的绿色按钮放大地图;点击带横线的绿色按钮缩小地图;或者点击绿色箭头查看邻近地区的地图。


METAR-TAF: